createdAt,value
2022-12-17T00:02:21.161Z,70.40
2022-12-17T00:05:06.748Z,70.40
2022-12-17T00:07:52.012Z,70.40
2022-12-17T00:10:37.705Z,70.40
2022-12-17T00:13:22.742Z,70.10
2022-12-17T00:16:14.205Z,70.00
2022-12-17T00:18:59.504Z,70.10
2022-12-17T00:21:44.587Z,70.10
2022-12-17T00:24:29.728Z,70.20
2022-12-17T00:27:14.963Z,70.20
2022-12-17T00:30:00.177Z,70.10
2022-12-17T00:32:45.418Z,70.10
2022-12-17T00:35:30.521Z,70.10
2022-12-17T00:38:15.972Z,69.70
2022-12-17T00:41:01.050Z,69.70
2022-12-17T00:43:53.818Z,69.80
2022-12-17T00:46:41.597Z,69.90
2022-12-17T00:49:26.540Z,69.90
2022-12-17T00:52:11.565Z,69.80
2022-12-17T00:54:56.671Z,70.50
2022-12-17T00:57:41.900Z,69.60
2022-12-17T01:00:28.026Z,69.60
2022-12-17T01:03:27.062Z,69.70
2022-12-17T01:06:12.371Z,69.50
2022-12-17T01:08:57.505Z,69.30
2022-12-17T01:11:42.566Z,69.20
2022-12-17T01:14:41.339Z,69.30
2022-12-17T01:17:26.544Z,69.50
2022-12-17T01:20:11.885Z,69.60
2022-12-17T01:22:57.205Z,69.30
2022-12-17T01:25:45.342Z,69.30
2022-12-17T01:28:30.904Z,69.30
2022-12-17T01:31:16.211Z,69.10
2022-12-17T01:34:01.576Z,69.10
2022-12-17T01:36:47.079Z,69.10
2022-12-17T01:39:32.605Z,68.90
2022-12-17T01:42:17.960Z,68.80
2022-12-17T01:45:13.085Z,68.90
2022-12-17T01:48:00.892Z,69.00
2022-12-17T01:50:49.571Z,68.80
2022-12-17T01:53:36.045Z,68.80
2022-12-17T01:56:22.185Z,68.70
2022-12-17T01:59:07.127Z,68.50
2022-12-17T02:01:52.343Z,68.50
2022-12-17T02:04:37.622Z,68.50
2022-12-17T02:07:35.990Z,68.50
2022-12-17T02:10:27.736Z,68.20
2022-12-17T02:13:16.470Z,68.50
2022-12-17T02:16:06.267Z,68.20
2022-12-17T02:18:54.878Z,68.10
2022-12-17T02:21:40.080Z,68.00
2022-12-17T02:24:54.813Z,68.30
2022-12-17T02:27:39.934Z,67.90
2022-12-17T02:30:26.158Z,68.20
2022-12-17T02:33:12.584Z,68.10
2022-12-17T02:36:06.773Z,68.00
2022-12-17T02:38:52.545Z,68.00
2022-12-17T02:41:46.771Z,67.80
2022-12-17T02:44:32.898Z,68.10
2022-12-17T02:47:17.921Z,68.90
2022-12-17T02:50:03.038Z,68.10
2022-12-17T02:52:48.240Z,67.90
2022-12-17T02:55:33.440Z,68.10
2022-12-17T02:58:18.637Z,68.10
2022-12-17T03:01:03.772Z,67.80
2022-12-17T03:03:50.528Z,68.60
2022-12-17T03:06:35.814Z,67.60
2022-12-17T03:09:20.894Z,67.60
2022-12-17T03:12:06.066Z,67.80
2022-12-17T03:14:51.162Z,67.60
2022-12-17T03:17:36.412Z,67.60
2022-12-17T03:20:21.667Z,67.40
2022-12-17T03:23:06.788Z,67.40
2022-12-17T03:25:51.970Z,67.30
2022-12-17T03:28:37.142Z,67.40
2022-12-17T03:31:22.283Z,67.40
2022-12-17T03:34:07.483Z,67.40
2022-12-17T03:36:52.588Z,67.20
2022-12-17T03:39:37.726Z,67.00
2022-12-17T03:42:23.039Z,67.20
2022-12-17T03:45:08.138Z,67.10
2022-12-17T03:47:53.346Z,67.10
2022-12-17T03:50:38.796Z,67.00
2022-12-17T03:53:24.081Z,67.30
2022-12-17T03:56:08.971Z,67.30
2022-12-17T03:58:53.939Z,67.30
2022-12-17T04:01:39.064Z,67.40
2022-12-17T04:04:31.889Z,67.30
2022-12-17T04:07:17.132Z,67.30
2022-12-17T04:10:02.335Z,67.30
2022-12-17T04:12:47.554Z,67.30
2022-12-17T04:15:32.804Z,67.00
2022-12-17T04:18:18.029Z,67.00
2022-12-17T04:21:03.136Z,67.00
2022-12-17T04:23:48.329Z,67.00
2022-12-17T04:26:33.480Z,67.20
2022-12-17T04:29:18.604Z,67.10
2022-12-17T04:32:04.111Z,67.10
2022-12-17T04:34:49.321Z,66.90
2022-12-17T04:37:34.621Z,67.30
2022-12-17T04:40:19.761Z,67.00
2022-12-17T04:43:07.448Z,66.90
2022-12-17T04:45:52.740Z,67.20
2022-12-17T04:48:42.048Z,66.90
2022-12-17T04:51:27.019Z,66.70
2022-12-17T04:54:12.114Z,66.80
2022-12-17T04:56:57.192Z,66.70
2022-12-17T04:59:42.426Z,66.80
2022-12-17T05:02:27.593Z,66.70
2022-12-17T05:05:12.859Z,67.00
2022-12-17T05:07:58.375Z,66.80
2022-12-17T05:10:43.604Z,66.80
2022-12-17T05:13:29.314Z,66.70
2022-12-17T05:16:15.118Z,66.90
2022-12-17T05:19:00.283Z,67.00
2022-12-17T05:21:45.580Z,67.10
2022-12-17T05:24:30.744Z,67.10
2022-12-17T05:27:15.887Z,67.10
2022-12-17T05:30:00.945Z,66.90
2022-12-17T05:32:46.132Z,67.70
2022-12-17T05:35:31.177Z,66.90
2022-12-17T05:38:22.813Z,67.70
2022-12-17T05:41:07.945Z,66.70
2022-12-17T05:43:53.042Z,67.60
2022-12-17T05:46:38.036Z,66.80
2022-12-17T05:49:23.119Z,66.80
2022-12-17T05:52:08.166Z,66.80
2022-12-17T05:54:53.272Z,66.70
2022-12-17T05:57:38.526Z,66.50
2022-12-17T06:00:24.366Z,66.50
2022-12-17T06:03:18.545Z,66.70
2022-12-17T06:06:03.993Z,67.50
2022-12-17T06:08:49.046Z,66.60
2022-12-17T06:11:34.433Z,66.40
2022-12-17T06:14:19.411Z,66.40
2022-12-17T06:17:04.570Z,66.50
2022-12-17T06:19:49.913Z,66.60
2022-12-17T06:22:35.255Z,66.70
2022-12-17T06:25:20.481Z,66.70
2022-12-17T06:28:05.730Z,66.80
2022-12-17T06:30:51.387Z,66.80
2022-12-17T06:33:36.974Z,66.70
2022-12-17T06:36:23.130Z,66.70
2022-12-17T06:39:08.883Z,66.60
2022-12-17T06:42:02.052Z,66.80
2022-12-17T06:44:49.196Z,67.20
2022-12-17T06:47:37.290Z,66.80
2022-12-17T06:50:23.380Z,66.70
2022-12-17T06:53:20.184Z,66.60
2022-12-17T06:56:05.427Z,66.40
2022-12-17T06:58:50.405Z,66.20
2022-12-17T07:01:35.711Z,66.20
2022-12-17T07:04:21.489Z,66.20
2022-12-17T07:07:06.550Z,66.20
2022-12-17T07:09:54.811Z,66.10
2022-12-17T07:12:42.561Z,66.00
2022-12-17T07:15:29.739Z,66.00
2022-12-17T07:18:21.127Z,65.70
2022-12-17T07:21:06.786Z,65.20
2022-12-17T07:23:54.027Z,65.50
2022-12-17T07:26:39.068Z,65.70
2022-12-17T07:29:24.412Z,65.50
2022-12-17T07:32:09.596Z,65.70
2022-12-17T07:34:54.902Z,65.70
2022-12-17T07:37:39.926Z,65.70
2022-12-17T07:40:26.021Z,65.70
2022-12-17T07:43:11.178Z,65.80
2022-12-17T07:46:02.677Z,66.00
2022-12-17T07:48:51.005Z,65.80
2022-12-17T07:51:36.229Z,65.90
2022-12-17T07:54:21.424Z,65.90
2022-12-17T07:57:06.615Z,66.00
2022-12-17T07:59:52.064Z,66.20
2022-12-17T08:02:38.434Z,66.20
2022-12-17T08:05:24.343Z,66.00
2022-12-17T08:08:26.340Z,66.00
2022-12-17T08:11:11.709Z,66.10
2022-12-17T08:14:01.256Z,66.20
2022-12-17T08:16:46.623Z,66.20
2022-12-17T08:19:32.214Z,66.20
2022-12-17T08:22:17.655Z,66.20
2022-12-17T08:25:03.093Z,67.00
2022-12-17T08:27:48.571Z,66.20
2022-12-17T08:30:36.786Z,66.00
2022-12-17T08:33:23.261Z,66.10
2022-12-17T08:36:14.129Z,66.00
2022-12-17T08:38:59.343Z,66.00
2022-12-17T08:41:51.058Z,66.00
2022-12-17T08:44:39.206Z,66.00
2022-12-17T08:47:24.503Z,66.00
2022-12-17T08:50:10.869Z,66.00
2022-12-17T08:52:56.030Z,66.00
2022-12-17T08:55:41.185Z,65.90
2022-12-17T08:58:27.020Z,65.90
2022-12-17T09:01:12.151Z,66.00
2022-12-17T09:03:57.478Z,66.00
2022-12-17T09:06:42.763Z,65.80
2022-12-17T09:09:27.856Z,65.80
2022-12-17T09:12:13.034Z,65.70
2022-12-17T09:14:58.113Z,65.70
2022-12-17T09:17:43.472Z,65.70
2022-12-17T09:20:29.558Z,65.50
2022-12-17T09:23:16.921Z,65.60
2022-12-17T09:26:02.282Z,65.40
2022-12-17T09:28:47.442Z,65.20
2022-12-17T09:31:37.286Z,65.20
2022-12-17T09:34:22.946Z,65.40
2022-12-17T09:37:07.993Z,65.30
2022-12-17T09:39:53.266Z,65.20
2022-12-17T09:43:14.085Z,65.40
2022-12-17T09:46:43.546Z,65.40
2022-12-17T09:49:49.084Z,65.30
2022-12-17T09:52:37.254Z,65.30
2022-12-17T09:55:22.644Z,65.40
2022-12-17T09:58:08.009Z,65.20
2022-12-17T10:00:59.146Z,64.90
2022-12-17T10:03:46.041Z,64.80
2022-12-17T10:06:36.435Z,65.00
2022-12-17T10:09:28.432Z,64.80
2022-12-17T10:12:14.149Z,65.00
2022-12-17T10:14:59.361Z,64.90
2022-12-17T10:17:44.662Z,64.80
2022-12-17T10:20:58.192Z,64.90
2022-12-17T10:23:47.457Z,64.90
2022-12-17T10:26:46.271Z,64.60
2022-12-17T10:29:32.530Z,64.60
2022-12-17T10:32:38.311Z,64.60
2022-12-17T10:35:33.639Z,64.50
2022-12-17T10:38:19.627Z,64.40
2022-12-17T10:41:04.857Z,64.40
2022-12-17T10:43:51.982Z,64.30
2022-12-17T10:46:47.948Z,64.30
2022-12-17T10:49:40.822Z,64.20
2022-12-17T10:52:46.745Z,64.00
2022-12-17T10:55:43.550Z,64.00
2022-12-17T10:58:32.999Z,64.10
2022-12-17T11:01:19.855Z,63.80
2022-12-17T11:04:12.671Z,63.60
2022-12-17T11:07:08.948Z,63.40
2022-12-17T11:10:09.770Z,63.30
2022-12-17T11:13:17.627Z,63.30
2022-12-17T11:16:03.595Z,63.10
2022-12-17T11:18:58.815Z,63.00
2022-12-17T11:21:48.479Z,63.00
2022-12-17T11:24:37.565Z,62.90
2022-12-17T11:27:22.803Z,62.80
2022-12-17T11:30:07.886Z,62.80
2022-12-17T11:33:05.205Z,62.90
2022-12-17T11:36:00.108Z,62.60
2022-12-17T11:39:14.547Z,62.60
2022-12-17T11:42:25.847Z,62.70
2022-12-17T11:45:12.560Z,62.80
2022-12-17T11:48:12.875Z,62.70
2022-12-17T11:51:05.849Z,62.80
2022-12-17T11:54:19.388Z,62.70
2022-12-17T11:57:08.055Z,63.40
2022-12-17T12:00:05.726Z,63.40
2022-12-17T12:03:38.655Z,62.50
2022-12-17T12:06:40.049Z,62.60
2022-12-17T12:09:40.260Z,62.50
2022-12-17T12:12:53.307Z,62.60
2022-12-17T12:15:44.310Z,62.30
2022-12-17T12:18:39.254Z,62.40
2022-12-17T12:21:57.214Z,62.20
2022-12-17T12:25:10.038Z,62.20
2022-12-17T12:28:07.016Z,62.10
2022-12-17T12:30:58.207Z,62.00
2022-12-17T12:33:52.262Z,62.10
2022-12-17T12:36:38.044Z,62.20
2022-12-17T12:39:23.582Z,62.20
2022-12-17T12:42:18.743Z,62.10
2022-12-17T12:45:06.882Z,62.20
2022-12-17T12:48:15.364Z,62.20
2022-12-17T12:51:00.443Z,62.30
2022-12-17T12:53:45.771Z,62.10
2022-12-17T12:56:53.008Z,62.10
2022-12-17T12:59:47.797Z,62.00
2022-12-17T13:02:40.147Z,62.20
2022-12-17T13:05:34.923Z,62.20
2022-12-17T13:08:07.897Z,62.10
2022-12-17T13:10:35.771Z,62.10
2022-12-17T13:13:31.915Z,62.20
2022-12-17T13:16:19.096Z,62.00
2022-12-17T13:18:45.897Z,61.70
2022-12-17T13:21:15.194Z,61.50
2022-12-17T13:23:42.012Z,61.60
2022-12-17T13:26:24.297Z,61.50
2022-12-17T13:29:02.934Z,61.40
2022-12-17T13:31:42.885Z,61.40
2022-12-17T13:34:27.030Z,61.20
2022-12-17T13:37:05.593Z,61.30
2022-12-17T13:39:43.039Z,61.20
2022-12-17T13:42:30.247Z,61.40
2022-12-17T13:44:57.271Z,61.50
2022-12-17T13:47:26.451Z,61.20
2022-12-17T13:50:31.803Z,61.50
2022-12-17T13:52:41.372Z,61.40
2022-12-17T13:55:10.057Z,61.30
2022-12-17T13:57:37.843Z,61.20
2022-12-17T14:00:05.033Z,61.00
2022-12-17T14:02:39.140Z,60.70
2022-12-17T14:05:08.129Z,60.70
2022-12-17T14:07:37.886Z,60.50
2022-12-17T14:10:05.664Z,60.30
2022-12-17T14:12:35.191Z,60.20
2022-12-17T14:15:08.475Z,60.20
2022-12-17T14:17:35.181Z,60.20
2022-12-17T14:20:13.585Z,60.40
2022-12-17T14:22:46.315Z,60.10
2022-12-17T14:25:25.091Z,59.70
2022-12-17T14:28:00.593Z,59.80
2022-12-17T14:30:42.903Z,59.80
2022-12-17T14:33:31.773Z,60.10
2022-12-17T14:35:59.995Z,59.90
2022-12-17T14:38:37.836Z,60.00
2022-12-17T14:41:31.058Z,61.00
2022-12-17T14:43:58.836Z,60.10
2022-12-17T14:46:25.797Z,59.80
2022-12-17T14:49:03.578Z,59.90
2022-12-17T14:51:31.513Z,60.10
2022-12-17T14:54:14.227Z,59.60
2022-12-17T14:56:41.666Z,59.30
2022-12-17T14:59:30.380Z,59.20
2022-12-17T15:01:57.229Z,59.20
2022-12-17T15:04:24.071Z,59.20
2022-12-17T15:06:50.885Z,59.30
2022-12-17T15:09:17.997Z,59.30
2022-12-17T15:11:44.706Z,59.40
2022-12-17T15:14:11.445Z,59.40
2022-12-17T15:16:38.280Z,59.00
2022-12-17T15:19:05.120Z,59.00
2022-12-17T15:21:32.025Z,59.10
2022-12-17T15:23:58.752Z,59.00
2022-12-17T15:26:25.633Z,59.10
2022-12-17T15:28:52.878Z,59.40
2022-12-17T15:31:24.623Z,59.70
2022-12-17T15:33:54.908Z,59.20
2022-12-17T15:36:21.634Z,59.00
2022-12-17T15:38:50.964Z,59.20
2022-12-17T15:41:40.501Z,59.40
2022-12-17T15:44:10.968Z,59.40
2022-12-17T15:46:37.841Z,59.00
2022-12-17T15:49:04.555Z,58.70
2022-12-17T15:51:31.298Z,59.00
2022-12-17T15:54:01.280Z,59.30
2022-12-17T15:56:28.432Z,59.30
2022-12-17T15:59:01.386Z,59.20
2022-12-17T16:01:30.718Z,59.30
2022-12-17T16:03:57.930Z,58.90
2022-12-17T16:06:24.713Z,59.10
2022-12-17T16:08:51.587Z,59.30
2022-12-17T16:11:18.580Z,59.00
2022-12-17T16:13:45.297Z,59.10
2022-12-17T16:16:12.133Z,58.80
2022-12-17T16:18:39.478Z,58.80
2022-12-17T16:21:07.419Z,58.90
2022-12-17T16:23:34.349Z,58.60
2022-12-17T16:26:04.192Z,58.80
2022-12-17T16:28:32.932Z,58.70
2022-12-17T16:31:03.470Z,58.90
2022-12-17T16:33:40.164Z,58.10
2022-12-17T16:36:08.002Z,58.20
2022-12-17T16:38:36.618Z,58.00
2022-12-17T16:41:03.837Z,57.70
2022-12-17T16:43:33.222Z,57.50
2022-12-17T16:45:59.930Z,57.60
2022-12-17T16:48:26.733Z,57.70
2022-12-17T16:50:53.470Z,57.70
2022-12-17T16:53:22.971Z,57.40
2022-12-17T16:55:50.002Z,56.40
2022-12-17T16:58:17.205Z,56.10
2022-12-17T17:00:44.023Z,56.30
2022-12-17T17:03:10.931Z,56.20
2022-12-17T17:05:38.833Z,55.80
2022-12-17T17:08:05.917Z,55.40
2022-12-17T17:10:33.861Z,55.20
2022-12-17T17:13:00.625Z,55.20
2022-12-17T17:15:27.365Z,55.40
2022-12-17T17:17:57.538Z,55.60
2022-12-17T17:20:32.435Z,55.50
2022-12-17T17:22:59.733Z,54.50
2022-12-17T17:25:43.843Z,53.80
2022-12-17T17:28:13.703Z,53.90
2022-12-17T17:30:40.467Z,53.40
2022-12-17T17:33:07.242Z,52.80
2022-12-17T17:35:34.055Z,53.40
2022-12-17T17:38:01.037Z,53.90
2022-12-17T17:40:27.962Z,54.00
2022-12-17T17:42:54.720Z,54.10
2022-12-17T17:45:21.476Z,53.90
2022-12-17T17:47:48.265Z,53.70
2022-12-17T17:50:15.012Z,53.30
2022-12-17T17:52:44.540Z,52.60
2022-12-17T17:55:11.316Z,52.70
2022-12-17T17:57:38.036Z,52.50
2022-12-17T18:00:05.318Z,52.70
2022-12-17T18:02:32.324Z,52.80
2022-12-17T18:04:59.260Z,53.10
2022-12-17T18:07:27.174Z,52.30
2022-12-17T18:09:54.516Z,52.50
2022-12-17T18:12:39.787Z,52.10
2022-12-17T18:15:16.326Z,52.90
2022-12-17T18:17:45.436Z,52.60
2022-12-17T18:20:12.521Z,52.50
2022-12-17T18:22:39.293Z,52.20
2022-12-17T18:25:06.105Z,52.10
2022-12-17T18:27:32.920Z,52.10
2022-12-17T18:29:59.753Z,51.70
2022-12-17T18:32:26.554Z,51.50
2022-12-17T18:34:53.522Z,51.50
2022-12-17T18:37:20.223Z,51.80
2022-12-17T18:39:47.390Z,52.30
2022-12-17T18:42:32.495Z,52.50
2022-12-17T18:44:59.207Z,52.10
2022-12-17T18:47:26.073Z,51.80
2022-12-17T18:49:53.107Z,51.70
2022-12-17T18:52:19.943Z,52.00
2022-12-17T18:54:46.720Z,52.20
2022-12-17T18:57:13.445Z,52.40
2022-12-17T18:59:40.885Z,51.90
2022-12-17T19:02:11.530Z,51.50
2022-12-17T19:04:38.364Z,51.40
2022-12-17T19:07:05.481Z,51.50
2022-12-17T19:09:35.974Z,51.50
2022-12-17T19:12:07.197Z,51.60
2022-12-17T19:14:34.113Z,52.40
2022-12-17T19:17:00.859Z,52.00
2022-12-17T19:19:27.686Z,52.10
2022-12-17T19:21:59.704Z,51.50
2022-12-17T19:24:26.456Z,51.00
2022-12-17T19:26:55.117Z,51.50
2022-12-17T19:29:22.035Z,51.60
2022-12-17T19:31:48.905Z,52.00
2022-12-17T19:34:16.565Z,52.00
2022-12-17T19:36:43.403Z,52.00
2022-12-17T19:39:14.816Z,52.00
2022-12-17T19:41:41.616Z,52.20
2022-12-17T19:44:11.494Z,52.30
2022-12-17T19:46:38.398Z,52.00
2022-12-17T19:49:05.287Z,51.70
2022-12-17T19:51:32.177Z,51.60
2022-12-17T19:54:04.744Z,51.90
2022-12-17T19:56:34.750Z,51.80
2022-12-17T19:59:03.435Z,51.90
2022-12-17T20:01:34.942Z,51.70
2022-12-17T20:04:01.748Z,51.90
2022-12-17T20:06:29.895Z,52.00
2022-12-17T20:09:00.845Z,51.90
2022-12-17T20:11:33.882Z,51.80
2022-12-17T20:14:01.607Z,52.50
2022-12-17T20:16:28.975Z,52.10
2022-12-17T20:18:55.926Z,52.20
2022-12-17T20:21:22.658Z,52.20
2022-12-17T20:23:49.443Z,52.30
2022-12-17T20:26:16.316Z,52.50
2022-12-17T20:28:43.138Z,52.60
2022-12-17T20:31:09.855Z,52.80
2022-12-17T20:33:36.619Z,52.80
2022-12-17T20:36:08.349Z,53.10
2022-12-17T20:38:35.170Z,52.90
2022-12-17T20:41:01.941Z,52.80
2022-12-17T20:43:28.725Z,52.70
2022-12-17T20:45:55.505Z,52.70
2022-12-17T20:48:22.983Z,52.70
2022-12-17T20:50:49.864Z,52.90
2022-12-17T20:53:16.906Z,52.80
2022-12-17T20:55:43.610Z,53.10
2022-12-17T20:58:10.288Z,53.20
2022-12-17T21:00:37.229Z,53.30
2022-12-17T21:03:04.173Z,53.50
2022-12-17T21:05:31.027Z,53.60
2022-12-17T21:07:57.794Z,53.70
2022-12-17T21:10:24.560Z,53.70
2022-12-17T21:13:09.630Z,53.80
2022-12-17T21:15:36.433Z,53.80
2022-12-17T21:18:03.228Z,53.90
2022-12-17T21:20:29.951Z,54.00
2022-12-17T21:22:56.992Z,54.20
2022-12-17T21:25:23.718Z,54.10
2022-12-17T21:27:50.540Z,54.30
2022-12-17T21:30:17.387Z,54.30
2022-12-17T21:32:44.149Z,54.50
2022-12-17T21:35:11.706Z,54.60
2022-12-17T21:37:38.488Z,54.60
2022-12-17T21:40:05.746Z,54.50
2022-12-17T21:42:50.916Z,54.70
2022-12-17T21:45:17.714Z,54.80
2022-12-17T21:47:44.553Z,54.90
2022-12-17T21:50:11.255Z,55.00
2022-12-17T21:52:38.012Z,55.20
2022-12-17T21:55:05.174Z,55.00
2022-12-17T21:57:32.030Z,55.10
2022-12-17T21:59:58.710Z,55.30
2022-12-17T22:02:25.600Z,55.30
2022-12-17T22:04:52.583Z,55.30
2022-12-17T22:07:27.727Z,55.30
2022-12-17T22:10:37.323Z,55.40
2022-12-17T22:13:03.295Z,55.40
2022-12-17T22:15:35.001Z,55.50
2022-12-17T22:18:09.769Z,55.50
2022-12-17T22:20:36.527Z,55.50
2022-12-17T22:23:05.458Z,55.60
2022-12-17T22:25:32.395Z,55.70
2022-12-17T22:27:59.161Z,55.70
2022-12-17T22:30:44.384Z,55.70
2022-12-17T22:33:20.893Z,55.90
2022-12-17T22:37:31.522Z,55.80
2022-12-17T22:41:08.581Z,55.90
2022-12-17T22:44:37.449Z,56.00
2022-12-17T22:44:53.094Z,56.10
2022-12-17T22:47:21.558Z,56.00
2022-12-17T22:49:48.327Z,56.00
2022-12-17T22:52:15.485Z,56.00
2022-12-17T22:54:44.747Z,55.90
2022-12-17T22:57:34.943Z,55.90
2022-12-17T22:59:58.757Z,55.90
2022-12-17T23:02:25.612Z,55.90
2022-12-17T23:04:52.403Z,55.90
2022-12-17T23:07:19.165Z,55.90
2022-12-17T23:09:45.950Z,56.10
2022-12-17T23:12:31.068Z,56.00
2022-12-17T23:14:57.856Z,56.10
2022-12-17T23:17:24.568Z,56.10
2022-12-17T23:19:51.289Z,56.20
2022-12-17T23:22:22.219Z,56.30
2022-12-17T23:24:49.281Z,56.30
2022-12-17T23:27:18.553Z,56.30
2022-12-17T23:29:45.202Z,56.30
2022-12-17T23:32:11.920Z,56.30
2022-12-17T23:34:38.738Z,56.90
2022-12-17T23:37:05.709Z,56.40
2022-12-17T23:39:32.574Z,56.30
2022-12-17T23:41:59.440Z,56.40
2022-12-17T23:44:26.184Z,56.30
2022-12-17T23:46:53.161Z,56.30
2022-12-17T23:49:20.144Z,56.80
2022-12-17T23:51:46.863Z,56.20
2022-12-17T23:54:13.588Z,56.20
2022-12-17T23:56:40.459Z,56.20
2022-12-17T23:59:09.515Z,56.10
